Impacts TAF Board
For situational awareness. Not to be used for flight planning purposes.
IDs:

KLAS - Las Vegas/McCarran I, NV, US

Issued at 2016 UTC 23 Sep 2018
Updated at 2027 UTC 23 Sep 2018
Potential Impact None Slight Moderate High
Time<<24/09Z 24/10Z 24/11Z 24/12Z 24/13Z 24/14Z 24/15Z 24/16Z 24/17Z 24/18Z 24/19Z 24/20Z 24/21Z>>
Type PRVL PRVL PRVL PRVL PRVL PRVL PRVL PRVL PRVL PRVL PRVL PRVL PRVL
VIS >6 >6 >6 >6 >6 >6 >6 >6 >6 >6 >6 >6 >6
CIG -- -- -- -- -- -- -- -- -- -- -- -- --
Cover SCT SCT SCT SCT SCT SCT SCT SCT SCT SCT SCT SCT SCT
FltCat VFR VFR VFR VFR VFR VFR VFR VFR VFR VFR VFR VFR VFR
WX -- -- -- -- -- -- -- -- -- -- -- -- --
WDir 210 210 210 210 210 210 VRB VRB VRB VRB 90 90 90
WSpd 10 10 10 10 10 10 5 5 5 5 6 6 6
WGst -- -- -- -- -- -- -- -- -- -- -- -- --
Raw TAF
KLAS 232016Z 2320/2424 21014G23KT P6SM BKN120
  FM240200 21010KT P6SM SCT120
  FM241500 VRB05KT P6SM FEW120 SCT250
  FM241900 09006KT P6SM SCT250


METAR Board
Radar Display
Forecast Discussion
For situational awareness. Not to be used for flight planning purposes.